Terminal Aerodrome Forecast
Issued by NWS

Home | Current Version | Previous Version | Text Only | Print | Product List | Glossary On
Versions: 1 2 3 4 5 6 7 8 9 10 11 12 13 14 15 16
000
FTUS41 KBTV 260600 AAA
TAFMPV
TAF AMD
KMPV 260648Z 2607/2706 00000KT 1/4SM FG VV001
      TEMPO 2607/2611 1SM BR SCT001
     FM261230 22006KT P6SM SCT050 SCT150
     FM270300 20005KT P6SM BKN080=

USA.gov is the U.S. government's official web portal to all federal, state and local government web resources and services.